Ashwood, Texas
Current Conditions -  °F | °C
As of 7:53 AM on Tuesday 21 Oct 2014 (Local Time) from KLBX Reporting Station
Clear Clear  
Wind Chill: 60°   Ceiling: Unl
Heat Index: 60°   Visibility: 10mi
Dew Point: 59°   Wind: 7mph
Humidity: 96%   Direction: 30°NNE
Pressure: 30.02"   Gusts: NA
Location:  29.0235°N, 95.7113°W
Report Text: KLBX 211253Z AUTO 03006KT 10SM CLR 16/15 A3002 RMK AO2 SLP165 T01560150
Loading
Personal Weather Stations






























Interactive Weather Map
Tropical Storm Tracking
New forecast layout! Learn more

10-Day Weather Forecast

Advertisements
Track Severe Weather on mobile